createdAt,value
2022-12-31T00:00:51.850Z,9.8
2022-12-31T00:05:51.828Z,9.8
2022-12-31T00:10:52.353Z,9.9
2022-12-31T00:15:53.491Z,9.9
2022-12-31T00:20:52.235Z,10.1
2022-12-31T00:25:51.833Z,10.3
2022-12-31T00:40:51.929Z,10.7
2022-12-31T00:45:51.813Z,10.8
2022-12-31T00:50:51.760Z,10.9
2022-12-31T00:55:51.811Z,11.2
2022-12-31T01:00:51.842Z,11.5
2022-12-31T01:05:51.674Z,11.6
2022-12-31T01:10:55.287Z,11.8
2022-12-31T01:20:54.838Z,12.2
2022-12-31T01:25:53.395Z,12.4
2022-12-31T01:30:51.720Z,12.5
2022-12-31T01:35:51.778Z,12.8
2022-12-31T01:40:51.900Z,12.6
2022-12-31T01:45:51.860Z,12.4
2022-12-31T01:50:53.070Z,12.3
2022-12-31T01:55:51.779Z,12.3
2022-12-31T02:00:51.783Z,12.3
2022-12-31T02:05:51.747Z,12.3
2022-12-31T02:11:09.789Z,12.4
2022-12-31T02:15:53.005Z,12.4
2022-12-31T02:20:51.891Z,12.4
2022-12-31T02:25:51.996Z,12.6
2022-12-31T02:30:51.793Z,12.6
2022-12-31T02:35:51.699Z,12.8
2022-12-31T02:40:53.366Z,12.7
2022-12-31T02:45:51.841Z,12.6
2022-12-31T02:50:51.654Z,12.6
2022-12-31T02:55:52.142Z,12.4
2022-12-31T03:00:52.321Z,12.2
2022-12-31T03:05:51.998Z,12
2022-12-31T03:10:51.852Z,11.8
2022-12-31T03:15:51.816Z,11.7
2022-12-31T03:20:52.003Z,11.8
2022-12-31T03:25:53.389Z,11.9
2022-12-31T03:30:51.875Z,11.6
2022-12-31T03:35:52.253Z,11.4
2022-12-31T03:40:51.769Z,11.3
2022-12-31T03:45:51.967Z,11.1
2022-12-31T03:50:52.723Z,10.9
2022-12-31T03:55:51.776Z,10.9
2022-12-31T04:00:52.034Z,10.8
2022-12-31T04:05:51.695Z,10.7
2022-12-31T04:10:52.277Z,10.7
2022-12-31T04:15:51.713Z,10.8
2022-12-31T04:20:52.003Z,10.9
2022-12-31T04:25:51.768Z,11.1
2022-12-31T04:30:51.737Z,11
2022-12-31T04:35:51.874Z,11.1
2022-12-31T04:40:51.889Z,11
2022-12-31T04:45:51.854Z,11.1
2022-12-31T04:50:51.737Z,11.1
2022-12-31T04:55:51.834Z,11.3
2022-12-31T05:00:53.794Z,11.3
2022-12-31T05:05:52.184Z,11.3
2022-12-31T05:10:51.800Z,11.1
2022-12-31T05:15:51.727Z,11.1
2022-12-31T05:20:51.908Z,11.1
2022-12-31T05:25:51.836Z,11.2
2022-12-31T05:30:51.847Z,11.3
2022-12-31T05:35:51.938Z,11.4
2022-12-31T05:40:52.748Z,11.4
2022-12-31T05:45:51.757Z,11.4
2022-12-31T05:50:51.868Z,11.5
2022-12-31T05:55:52.535Z,11.6
2022-12-31T06:00:51.792Z,11.6
2022-12-31T06:05:51.824Z,11.6
2022-12-31T06:10:51.807Z,11.5
2022-12-31T06:15:51.817Z,11.6
2022-12-31T06:20:52.002Z,11.6
2022-12-31T06:25:51.798Z,11.6
2022-12-31T06:30:52.264Z,11.5
2022-12-31T06:35:51.946Z,11.6
2022-12-31T06:40:51.795Z,11.6
2022-12-31T06:45:51.843Z,11.7
2022-12-31T06:50:51.919Z,11.8
2022-12-31T06:55:52.163Z,11.8
2022-12-31T07:00:51.893Z,11.8
2022-12-31T07:05:51.754Z,11.9
2022-12-31T07:10:51.722Z,11.8
2022-12-31T07:15:52.059Z,11.8
2022-12-31T07:20:51.998Z,11.8
2022-12-31T07:25:52.293Z,11.6
2022-12-31T07:30:51.896Z,11.7
2022-12-31T07:35:52.301Z,11.8
2022-12-31T07:40:52.273Z,11.8
2022-12-31T07:45:51.980Z,11.6
2022-12-31T07:50:52.080Z,11.6
2022-12-31T07:55:51.812Z,11.6
2022-12-31T08:00:51.824Z,11.7
2022-12-31T08:05:51.804Z,11.8
2022-12-31T08:10:51.767Z,11.8
2022-12-31T08:15:52.203Z,11.9
2022-12-31T08:20:52.285Z,12.3
2022-12-31T08:25:52.094Z,12.6
2022-12-31T08:30:51.930Z,12.8
2022-12-31T08:35:52.124Z,13.1
2022-12-31T08:40:51.924Z,13.4
2022-12-31T08:45:52.024Z,13.7
2022-12-31T08:50:52.060Z,14
2022-12-31T08:55:51.875Z,14.4
2022-12-31T09:00:52.167Z,14.7
2022-12-31T09:05:52.707Z,15.2
2022-12-31T09:10:51.836Z,14.8
2022-12-31T09:15:52.062Z,14.7
2022-12-31T09:20:52.773Z,14.6
2022-12-31T09:25:51.924Z,14.6
2022-12-31T09:30:51.842Z,14.6
2022-12-31T09:35:51.953Z,14.6
2022-12-31T09:40:51.837Z,14.5
2022-12-31T09:45:51.987Z,14.4
2022-12-31T09:50:51.821Z,14.4
2022-12-31T09:55:51.847Z,14.4
2022-12-31T10:00:52.174Z,14.6
2022-12-31T10:05:51.799Z,14.6
2022-12-31T10:10:51.863Z,14.6
2022-12-31T10:15:51.919Z,14.7
2022-12-31T10:20:52.554Z,14.8
2022-12-31T10:25:52.378Z,14.9
2022-12-31T10:30:52.007Z,14.9
2022-12-31T10:35:51.878Z,15.1
2022-12-31T10:40:52.281Z,15.4
2022-12-31T10:45:51.936Z,15.6
2022-12-31T10:50:51.849Z,15.7
2022-12-31T10:55:52.343Z,15.7
2022-12-31T11:00:54.965Z,15.9
2022-12-31T11:05:52.009Z,16.2
2022-12-31T11:10:51.895Z,16.4
2022-12-31T11:15:51.903Z,16.4
2022-12-31T11:20:53.259Z,16.4
2022-12-31T11:25:51.921Z,16.5
2022-12-31T11:30:51.848Z,16.5
2022-12-31T11:35:51.925Z,16.4
2022-12-31T11:40:52.143Z,16.3
2022-12-31T11:45:52.224Z,16.3
2022-12-31T11:50:56.616Z,16.4
2022-12-31T11:55:51.932Z,16.8
2022-12-31T12:00:51.870Z,17.3
2022-12-31T12:05:51.980Z,17.9
2022-12-31T12:10:52.125Z,17.6
2022-12-31T12:15:52.012Z,17.6
2022-12-31T12:20:52.811Z,17.8
2022-12-31T12:25:53.429Z,17.6
2022-12-31T12:30:53.555Z,17.8
2022-12-31T12:35:54.830Z,17.8
2022-12-31T12:40:51.892Z,17.8
2022-12-31T12:45:52.465Z,17.6
2022-12-31T12:50:51.990Z,17.8
2022-12-31T12:55:52.206Z,17.7
2022-12-31T13:00:54.132Z,17.4
2022-12-31T13:05:51.871Z,17.3
2022-12-31T13:10:53.399Z,17.3
2022-12-31T13:15:52.027Z,17.2
2022-12-31T13:20:52.240Z,17.1
2022-12-31T13:25:51.988Z,17
2022-12-31T13:30:51.906Z,17
2022-12-31T13:35:52.235Z,16.9
2022-12-31T13:40:52.286Z,16.8
2022-12-31T13:45:52.078Z,16.8
2022-12-31T13:50:52.431Z,16.6
2022-12-31T13:55:56.570Z,16.6
2022-12-31T14:00:53.177Z,16.7
2022-12-31T14:05:52.055Z,16.6
2022-12-31T14:11:02.786Z,16.5
2022-12-31T14:15:51.986Z,16.3
2022-12-31T14:20:52.483Z,16.1
2022-12-31T14:25:52.062Z,16
2022-12-31T14:30:52.137Z,15.8
2022-12-31T14:35:51.924Z,15.6
2022-12-31T14:40:51.995Z,15.3
2022-12-31T14:45:52.083Z,14.9
2022-12-31T14:50:51.941Z,14.7
2022-12-31T14:55:52.435Z,14.8
2022-12-31T15:00:51.931Z,14.5
2022-12-31T15:05:51.916Z,14.4
2022-12-31T15:10:52.129Z,14.4
2022-12-31T15:15:51.950Z,14.3
2022-12-31T15:20:54.810Z,14.2
2022-12-31T15:25:51.958Z,13.9
2022-12-31T15:30:52.088Z,13.4
2022-12-31T15:35:51.957Z,12.9
2022-12-31T15:40:51.964Z,12.9
2022-12-31T15:45:51.998Z,13.1
2022-12-31T15:50:51.903Z,13.4
2022-12-31T15:55:53.336Z,13.3
2022-12-31T16:00:51.987Z,13.4
2022-12-31T16:05:52.072Z,13.3
2022-12-31T16:10:52.404Z,13.4
2022-12-31T16:15:51.984Z,13.2
2022-12-31T16:20:53.081Z,13.1
2022-12-31T16:25:52.203Z,13.1
2022-12-31T16:30:52.062Z,12.9
2022-12-31T16:35:52.423Z,13.1
2022-12-31T16:40:52.227Z,13
2022-12-31T16:45:52.183Z,13.1
2022-12-31T16:50:52.374Z,12.9
2022-12-31T16:55:52.002Z,12.8
2022-12-31T17:01:02.162Z,13
2022-12-31T17:05:53.566Z,12.9
2022-12-31T17:10:52.369Z,12.8
2022-12-31T17:15:53.586Z,12.9
2022-12-31T17:20:52.260Z,12.8
2022-12-31T17:25:52.059Z,12.9
2022-12-31T17:30:52.119Z,13.1
2022-12-31T17:35:51.933Z,12.8
2022-12-31T17:40:52.498Z,12.9
2022-12-31T17:45:52.017Z,12.8
2022-12-31T17:50:51.912Z,12.9
2022-12-31T17:55:51.976Z,12.9
2022-12-31T18:00:51.916Z,12.6
2022-12-31T18:05:52.268Z,12.6
2022-12-31T18:10:52.219Z,12.6
2022-12-31T18:15:52.129Z,12.6
2022-12-31T18:20:52.411Z,12.6
2022-12-31T18:25:51.999Z,12.5
2022-12-31T18:30:52.236Z,12.4
2022-12-31T18:36:09.079Z,12.4
2022-12-31T18:40:52.077Z,12.4
2022-12-31T18:45:52.007Z,12.4
2022-12-31T18:50:52.344Z,12.4
2022-12-31T18:55:52.027Z,12.5
2022-12-31T19:00:52.081Z,12.6
2022-12-31T19:05:52.426Z,12.6
2022-12-31T19:10:51.974Z,12.6
2022-12-31T19:15:52.002Z,12.6
2022-12-31T19:20:56.605Z,12.6
2022-12-31T19:25:52.058Z,12.6
2022-12-31T19:30:52.267Z,12.6
2022-12-31T19:35:51.999Z,12.6
2022-12-31T19:40:52.593Z,12.5
2022-12-31T19:45:52.119Z,12.8
2022-12-31T19:50:52.113Z,12.9
2022-12-31T19:55:52.104Z,12.8
2022-12-31T20:00:57.037Z,12.9
2022-12-31T20:05:51.996Z,12.7
2022-12-31T20:10:52.174Z,12.6
2022-12-31T20:15:52.424Z,12.6
2022-12-31T20:20:55.690Z,12.4
2022-12-31T20:25:52.203Z,12.5
2022-12-31T20:30:52.705Z,12.6
2022-12-31T20:35:52.052Z,12.7
2022-12-31T20:40:52.229Z,12.8
2022-12-31T20:45:52.324Z,12.8
2022-12-31T20:50:52.155Z,12.6
2022-12-31T20:55:52.035Z,12.6
2022-12-31T21:00:52.107Z,12.7
2022-12-31T21:05:52.122Z,12.6
2022-12-31T21:10:52.347Z,12.8
2022-12-31T21:15:52.134Z,12.8
2022-12-31T21:20:52.947Z,12.8
2022-12-31T21:25:52.092Z,12.9
2022-12-31T21:30:52.080Z,12.8
2022-12-31T21:35:53.996Z,12.8
2022-12-31T21:40:52.210Z,12.9
2022-12-31T21:45:52.100Z,12.9
2022-12-31T21:50:52.026Z,12.8
2022-12-31T21:55:52.137Z,12.8
2022-12-31T22:00:52.323Z,12.9
2022-12-31T22:05:52.258Z,12.8
2022-12-31T22:10:52.905Z,12.9
2022-12-31T22:15:52.138Z,12.8
2022-12-31T22:20:52.286Z,12.6
2022-12-31T22:25:52.157Z,12.7
2022-12-31T22:30:52.988Z,12.6
2022-12-31T22:35:52.197Z,12.6
2022-12-31T22:40:52.364Z,12.5
2022-12-31T22:45:52.076Z,12.5
2022-12-31T22:50:52.593Z,12.5
2022-12-31T22:55:52.366Z,12.4
2022-12-31T23:00:52.109Z,12.5
2022-12-31T23:05:52.308Z,12.5
2022-12-31T23:10:52.605Z,12.5
2022-12-31T23:15:52.308Z,12.7
2022-12-31T23:20:52.839Z,12.6
2022-12-31T23:25:54.683Z,12.5
2022-12-31T23:30:52.549Z,12.3
2022-12-31T23:35:52.429Z,12.1
2022-12-31T23:40:54.901Z,12.2
2022-12-31T23:45:52.729Z,12.1
2022-12-31T23:50:54.056Z,12
2022-12-31T23:55:52.258Z,11.9
